createdAt,value
2023-01-25T00:00:31.806Z,1.10
2023-01-25T00:02:58.686Z,1.20
2023-01-25T00:05:25.583Z,1.20
2023-01-25T00:07:52.413Z,1.10
2023-01-25T00:10:19.863Z,1.20
2023-01-25T00:12:46.660Z,1.20
2023-01-25T00:15:13.665Z,1.20
2023-01-25T00:17:40.614Z,1.10
2023-01-25T00:20:08.109Z,1.20
2023-01-25T00:22:34.883Z,1.20
2023-01-25T00:25:01.723Z,1.20
2023-01-25T00:27:28.512Z,1.20
2023-01-25T00:30:32.600Z,1.20
2023-01-25T00:33:36.926Z,1.20
2023-01-25T00:36:28.023Z,1.20
2023-01-25T00:38:55.112Z,1.20
2023-01-25T00:41:21.802Z,1.20
2023-01-25T00:43:48.529Z,1.20
2023-01-25T00:46:17.114Z,1.20
2023-01-25T00:48:44.213Z,1.10
2023-01-25T00:51:11.713Z,1.20
2023-01-25T00:53:38.418Z,1.20
2023-01-25T00:58:39.008Z,1.20
2023-01-25T01:01:05.711Z,1.20
2023-01-25T01:03:32.546Z,1.20
2023-01-25T01:06:57.115Z,1.10
2023-01-25T01:09:43.000Z,1.20
2023-01-25T01:12:28.488Z,1.20
2023-01-25T01:15:51.574Z,1.20
2023-01-25T01:19:14.956Z,1.20
2023-01-25T01:21:42.107Z,1.20
2023-01-25T01:24:10.797Z,1.20
2023-01-25T01:26:37.721Z,1.20
2023-01-25T01:29:05.141Z,1.20
2023-01-25T01:31:32.161Z,1.20
2023-01-25T01:33:59.307Z,1.20
2023-01-25T01:36:29.256Z,1.20
2023-01-25T01:38:57.371Z,1.20
2023-01-25T01:41:24.049Z,1.20
2023-01-25T01:43:53.096Z,1.20
2023-01-25T01:46:34.676Z,1.20
2023-01-25T01:49:13.525Z,1.20
2023-01-25T01:51:47.785Z,1.20
2023-01-25T01:54:36.504Z,1.20
2023-01-25T01:57:20.005Z,1.20
2023-01-25T01:59:50.533Z,1.30
2023-01-25T02:02:17.341Z,1.10
2023-01-25T02:04:48.730Z,1.20
2023-01-25T02:07:16.956Z,1.10
2023-01-25T02:09:45.258Z,1.20
2023-01-25T02:12:13.963Z,1.20
2023-01-25T02:14:47.603Z,1.20
2023-01-25T02:17:14.429Z,1.20
2023-01-25T02:20:20.035Z,1.20
2023-01-25T02:23:15.568Z,1.20
2023-01-25T02:25:42.797Z,1.20
2023-01-25T02:28:14.220Z,1.20
2023-01-25T02:30:42.744Z,1.20
2023-01-25T02:33:09.744Z,1.20
2023-01-25T02:35:41.136Z,1.20
2023-01-25T02:38:09.703Z,1.20
2023-01-25T02:40:44.388Z,1.20
2023-01-25T02:43:11.223Z,1.20
2023-01-25T02:45:37.996Z,1.20
2023-01-25T02:48:05.172Z,1.20
2023-01-25T02:50:31.937Z,1.20
2023-01-25T02:52:58.730Z,1.20
2023-01-25T02:55:25.453Z,1.10
2023-01-25T02:57:52.185Z,1.20
2023-01-25T03:00:19.225Z,1.20
2023-01-25T03:02:46.008Z,1.20
2023-01-25T03:05:12.924Z,1.20
2023-01-25T03:07:39.604Z,1.20
2023-01-25T03:10:06.673Z,1.20
2023-01-25T03:12:33.360Z,1.20
2023-01-25T03:15:00.087Z,1.20
2023-01-25T03:17:27.108Z,1.20
2023-01-25T03:19:54.094Z,1.20
2023-01-25T03:22:20.923Z,1.10
2023-01-25T03:24:47.596Z,1.20
2023-01-25T03:27:14.481Z,1.20
2023-01-25T03:29:41.724Z,1.10
2023-01-25T03:32:09.026Z,1.20
2023-01-25T03:34:35.918Z,1.30
2023-01-25T03:37:03.632Z,1.20
2023-01-25T03:39:30.320Z,1.20
2023-01-25T03:41:57.028Z,1.10
2023-01-25T03:44:23.768Z,1.10
2023-01-25T03:46:50.534Z,1.10
2023-01-25T03:49:18.526Z,1.10
2023-01-25T03:51:45.398Z,1.20
2023-01-25T03:54:12.071Z,1.20
2023-01-25T03:56:38.941Z,1.10
2023-01-25T03:59:05.930Z,1.20
2023-01-25T04:01:32.984Z,1.10
2023-01-25T04:03:59.675Z,1.20
2023-01-25T04:06:26.577Z,1.20
2023-01-25T04:08:53.369Z,1.10
2023-01-25T04:11:20.135Z,1.20
2023-01-25T04:13:46.895Z,1.10
2023-01-25T04:16:13.838Z,1.20
2023-01-25T04:18:40.920Z,1.20
2023-01-25T04:21:07.690Z,1.20
2023-01-25T04:23:34.567Z,1.20
2023-01-25T04:26:05.726Z,1.20
2023-01-25T04:28:33.386Z,1.20
2023-01-25T04:31:00.337Z,1.20
2023-01-25T04:33:27.659Z,1.20
2023-01-25T04:35:54.370Z,1.20
2023-01-25T04:38:21.446Z,1.20
2023-01-25T04:40:48.189Z,1.20
2023-01-25T04:43:16.501Z,1.20
2023-01-25T04:45:43.590Z,1.20
2023-01-25T04:48:12.822Z,1.20
2023-01-25T04:50:44.081Z,1.20
2023-01-25T04:53:12.384Z,1.20
2023-01-25T04:55:39.156Z,1.20
2023-01-25T04:58:05.880Z,1.20
2023-01-25T05:00:32.927Z,1.20
2023-01-25T05:02:59.713Z,1.20
2023-01-25T05:05:26.633Z,1.20
2023-01-25T05:07:53.412Z,1.20
2023-01-25T05:10:20.436Z,1.20
2023-01-25T05:12:47.146Z,1.20
2023-01-25T05:15:14.283Z,1.10
2023-01-25T05:17:41.019Z,1.10
2023-01-25T05:20:08.336Z,1.20
2023-01-25T05:22:35.136Z,1.10
2023-01-25T05:25:02.915Z,1.20
2023-01-25T05:27:29.720Z,1.20
2023-01-25T05:29:57.123Z,1.10
2023-01-25T05:32:24.495Z,1.20
2023-01-25T05:34:52.129Z,1.10
2023-01-25T05:37:20.782Z,1.10
2023-01-25T05:39:47.693Z,1.10
2023-01-25T05:42:17.172Z,1.20
2023-01-25T05:44:46.325Z,1.10
2023-01-25T05:47:16.803Z,1.20
2023-01-25T05:49:44.167Z,1.10
2023-01-25T05:52:15.773Z,1.10
2023-01-25T05:54:42.554Z,1.20
2023-01-25T05:57:09.207Z,1.10
2023-01-25T05:59:36.359Z,1.20
2023-01-25T06:02:03.105Z,1.10
2023-01-25T06:04:30.083Z,1.10
2023-01-25T06:06:56.934Z,1.10
2023-01-25T06:09:23.816Z,1.10
2023-01-25T06:11:50.728Z,1.10
2023-01-25T06:14:17.841Z,1.10
2023-01-25T06:16:44.631Z,1.10
2023-01-25T06:19:13.605Z,1.10
2023-01-25T06:21:40.523Z,1.10
2023-01-25T06:24:07.699Z,1.10
2023-01-25T06:26:34.757Z,1.10
2023-01-25T06:29:01.574Z,1.00
2023-01-25T06:31:28.526Z,1.10
2023-01-25T06:33:55.679Z,1.10
2023-01-25T06:36:22.980Z,1.10
2023-01-25T06:38:51.605Z,1.10
2023-01-25T06:41:19.660Z,1.00
2023-01-25T06:43:47.897Z,1.10
2023-01-25T06:46:14.752Z,1.10
2023-01-25T06:48:42.952Z,1.10
2023-01-25T06:51:12.521Z,1.10
2023-01-25T06:53:44.384Z,1.10
2023-01-25T06:56:18.405Z,1.10
2023-01-25T06:58:45.820Z,1.00
2023-01-25T07:01:20.244Z,1.10
2023-01-25T07:03:51.808Z,1.10
2023-01-25T07:06:19.313Z,1.10
2023-01-25T07:08:46.369Z,1.00
2023-01-25T07:11:14.914Z,1.00
2023-01-25T07:13:43.589Z,1.00
2023-01-25T07:16:14.278Z,1.10
2023-01-25T07:18:42.279Z,1.00
2023-01-25T07:21:21.397Z,1.00
2023-01-25T07:23:49.676Z,1.10
2023-01-25T07:26:26.133Z,1.00
2023-01-25T07:28:54.257Z,1.00
2023-01-25T07:31:21.567Z,1.00
2023-01-25T07:33:53.359Z,1.00
2023-01-25T07:36:20.512Z,1.00
2023-01-25T07:38:47.868Z,1.00
2023-01-25T07:41:16.408Z,1.00
2023-01-25T07:43:43.380Z,1.00
2023-01-25T07:46:12.305Z,1.00
2023-01-25T07:48:40.182Z,1.00
2023-01-25T07:51:12.929Z,1.00
2023-01-25T07:53:41.434Z,1.00
2023-01-25T07:56:09.423Z,1.00
2023-01-25T07:58:36.896Z,1.00
2023-01-25T08:01:15.008Z,1.00
2023-01-25T08:03:42.239Z,1.00
2023-01-25T08:06:09.930Z,1.00
2023-01-25T08:08:55.322Z,1.00
2023-01-25T08:11:25.130Z,1.00
2023-01-25T08:13:51.973Z,1.00
2023-01-25T08:16:21.555Z,1.00
2023-01-25T08:18:49.514Z,1.00
2023-01-25T08:21:16.335Z,1.00
2023-01-25T08:23:43.371Z,1.00
2023-01-25T08:26:12.527Z,1.00
2023-01-25T08:28:39.467Z,1.00
2023-01-25T08:31:19.209Z,1.00
2023-01-25T08:33:46.878Z,1.00
2023-01-25T08:36:15.285Z,1.00
2023-01-25T08:38:42.562Z,1.00
2023-01-25T08:41:18.379Z,1.00
2023-01-25T08:43:46.211Z,1.00
2023-01-25T08:46:14.646Z,1.00
2023-01-25T08:48:41.406Z,1.00
2023-01-25T08:51:11.299Z,0.90
2023-01-25T08:53:38.088Z,1.00
2023-01-25T08:56:10.062Z,1.00
2023-01-25T08:58:47.639Z,1.00
2023-01-25T09:01:17.088Z,1.00
2023-01-25T09:03:45.981Z,1.00
2023-01-25T09:06:13.474Z,1.00
2023-01-25T09:08:40.145Z,1.00
2023-01-25T09:11:09.528Z,1.00
2023-01-25T09:13:36.940Z,1.00
2023-01-25T09:16:09.793Z,1.10
2023-01-25T09:18:37.943Z,1.00
2023-01-25T09:21:15.307Z,1.00
2023-01-25T09:23:51.539Z,1.00
2023-01-25T09:26:31.561Z,1.00
2023-01-25T09:28:59.366Z,1.00
2023-01-25T09:31:28.315Z,1.00
2023-01-25T09:33:56.656Z,1.00
2023-01-25T09:36:26.299Z,1.00
2023-01-25T09:38:53.723Z,1.00
2023-01-25T09:41:26.309Z,1.00
2023-01-25T09:44:21.087Z,1.00
2023-01-25T09:47:00.161Z,1.00
2023-01-25T09:49:35.509Z,1.00
2023-01-25T09:52:21.515Z,1.00
2023-01-25T09:54:48.703Z,1.00
2023-01-25T09:57:23.103Z,1.00
2023-01-25T09:59:51.965Z,1.00
2023-01-25T10:02:49.595Z,1.00
2023-01-25T10:05:21.141Z,1.00
2023-01-25T10:08:20.715Z,1.00
2023-01-25T10:10:50.951Z,1.00
2023-01-25T10:13:24.024Z,1.00
2023-01-25T10:15:55.624Z,1.00
2023-01-25T10:18:27.732Z,1.00
2023-01-25T10:21:20.891Z,1.00
2023-01-25T10:23:59.759Z,1.00
2023-01-25T10:26:34.291Z,1.00
2023-01-25T10:29:14.782Z,1.00
2023-01-25T10:31:47.117Z,1.00
2023-01-25T10:34:21.207Z,1.00
2023-01-25T10:36:53.219Z,1.00
2023-01-25T10:39:20.216Z,0.90
2023-01-25T10:41:59.382Z,1.00
2023-01-25T10:44:26.311Z,1.00
2023-01-25T10:46:59.008Z,1.00
2023-01-25T10:49:32.415Z,1.00
2023-01-25T10:52:19.098Z,1.00
2023-01-25T10:54:46.826Z,1.00
2023-01-25T10:57:22.826Z,1.00
2023-01-25T10:59:52.698Z,1.00
2023-01-25T11:02:40.526Z,1.00
2023-01-25T11:05:27.483Z,1.10
2023-01-25T11:07:54.637Z,1.10
2023-01-25T11:10:31.119Z,1.10
2023-01-25T11:13:22.949Z,1.10
2023-01-25T11:16:02.094Z,1.10
2023-01-25T11:18:35.023Z,1.10
2023-01-25T11:21:23.385Z,1.00
2023-01-25T11:24:04.567Z,1.10
2023-01-25T11:26:33.638Z,1.10
2023-01-25T11:29:15.949Z,1.00
2023-01-25T11:31:46.315Z,1.00
2023-01-25T11:34:29.979Z,1.00
2023-01-25T11:37:08.694Z,1.00
2023-01-25T11:39:38.108Z,1.00
2023-01-25T11:42:26.581Z,1.00
2023-01-25T11:45:11.516Z,1.00
2023-01-25T11:47:41.448Z,1.00
2023-01-25T11:50:14.195Z,1.00
2023-01-25T11:53:15.163Z,1.00
2023-01-25T11:55:47.998Z,1.00
2023-01-25T11:58:27.175Z,1.00
2023-01-25T12:01:07.396Z,1.00
2023-01-25T12:03:43.195Z,1.00
2023-01-25T12:06:25.248Z,1.00
2023-01-25T12:09:21.077Z,1.10
2023-01-25T12:12:24.797Z,1.10
2023-01-25T12:15:07.550Z,1.10
2023-01-25T12:18:05.308Z,1.10
2023-01-25T12:20:32.010Z,1.10
2023-01-25T12:23:29.342Z,1.10
2023-01-25T12:26:15.829Z,1.10
2023-01-25T12:29:06.934Z,1.10
2023-01-25T12:31:58.486Z,1.10
2023-01-25T12:34:32.626Z,1.10
2023-01-25T12:37:06.154Z,1.10
2023-01-25T12:39:56.000Z,1.10
2023-01-25T12:42:40.953Z,1.10
2023-01-25T12:45:15.763Z,1.10
2023-01-25T12:47:49.895Z,1.00
2023-01-25T12:50:42.408Z,1.00
2023-01-25T12:53:23.217Z,1.00
2023-01-25T12:55:50.466Z,1.00
2023-01-25T12:58:37.112Z,1.00
2023-01-25T13:01:35.902Z,1.00
2023-01-25T13:04:27.553Z,1.00
2023-01-25T13:07:01.611Z,1.00
2023-01-25T13:09:31.034Z,1.00
2023-01-25T13:11:57.833Z,1.10
2023-01-25T13:14:35.348Z,1.00
2023-01-25T13:17:30.153Z,1.10
2023-01-25T13:19:57.296Z,1.10
2023-01-25T13:22:43.773Z,1.00
2023-01-25T13:25:24.221Z,1.00
2023-01-25T13:27:51.017Z,1.10
2023-01-25T13:30:34.608Z,1.00
2023-01-25T13:33:07.247Z,1.00
2023-01-25T13:35:41.744Z,1.00
2023-01-25T13:38:32.701Z,1.00
2023-01-25T13:41:11.895Z,1.10
2023-01-25T13:43:45.024Z,1.10
2023-01-25T13:46:15.742Z,1.00
2023-01-25T13:49:01.609Z,1.00
2023-01-25T13:51:33.254Z,1.00
2023-01-25T13:54:00.509Z,1.00
2023-01-25T13:56:30.761Z,0.90
2023-01-25T13:58:58.322Z,1.00
2023-01-25T14:01:25.436Z,1.00
2023-01-25T14:03:59.520Z,0.90
2023-01-25T14:06:32.942Z,0.90
2023-01-25T14:09:07.707Z,0.90
2023-01-25T14:11:39.794Z,0.90
2023-01-25T14:14:20.928Z,0.90
2023-01-25T14:17:00.299Z,0.90
2023-01-25T14:19:29.867Z,0.90
2023-01-25T14:22:21.392Z,0.90
2023-01-25T14:25:11.892Z,1.00
2023-01-25T14:27:44.861Z,1.00
2023-01-25T14:30:26.722Z,0.90
2023-01-25T14:32:56.147Z,0.90
2023-01-25T14:35:43.618Z,0.90
2023-01-25T14:38:37.537Z,0.90
2023-01-25T14:41:21.285Z,0.90
2023-01-25T14:43:51.490Z,0.90
2023-01-25T14:46:23.921Z,0.90
2023-01-25T14:48:52.755Z,0.90
2023-01-25T14:51:28.744Z,0.90
2023-01-25T14:54:03.070Z,0.90
2023-01-25T14:56:52.153Z,0.90
2023-01-25T14:59:33.011Z,0.90
2023-01-25T15:02:22.524Z,0.80
2023-01-25T15:05:14.984Z,0.90
2023-01-25T15:07:44.621Z,0.90
2023-01-25T15:10:30.719Z,0.90
2023-01-25T15:13:20.929Z,0.90
2023-01-25T15:15:55.403Z,0.90
2023-01-25T15:18:40.156Z,0.90
2023-01-25T15:21:28.450Z,0.90
2023-01-25T15:23:57.544Z,0.90
2023-01-25T15:26:29.387Z,0.90
2023-01-25T15:28:58.706Z,0.90
2023-01-25T15:31:33.897Z,0.80
2023-01-25T15:34:01.661Z,0.80
2023-01-25T15:36:29.169Z,0.80
2023-01-25T15:38:56.145Z,0.80
2023-01-25T15:41:23.211Z,0.80
2023-01-25T15:43:50.126Z,0.80
2023-01-25T15:46:22.121Z,0.80
2023-01-25T15:48:50.293Z,0.80
2023-01-25T15:51:18.281Z,0.80
2023-01-25T15:53:45.158Z,0.80
2023-01-25T15:56:21.013Z,0.70
2023-01-25T15:58:51.491Z,0.70
2023-01-25T16:01:18.618Z,0.70
2023-01-25T16:03:45.523Z,0.60
2023-01-25T16:06:33.428Z,0.70
2023-01-25T16:09:01.643Z,0.70
2023-01-25T16:11:28.448Z,0.70
2023-01-25T16:13:55.237Z,0.70
2023-01-25T16:16:25.061Z,0.70
2023-01-25T16:18:51.815Z,0.70
2023-01-25T16:21:18.541Z,0.60
2023-01-25T16:23:45.266Z,0.60
2023-01-25T16:26:25.086Z,0.60
2023-01-25T16:28:52.303Z,0.60
2023-01-25T16:31:31.813Z,0.60
2023-01-25T16:34:00.364Z,0.60
2023-01-25T16:36:27.350Z,0.60
2023-01-25T16:38:54.127Z,0.60
2023-01-25T16:41:20.925Z,0.60
2023-01-25T16:43:49.364Z,0.60
2023-01-25T16:46:21.992Z,0.60
2023-01-25T16:48:52.156Z,0.60
2023-01-25T16:51:25.501Z,0.60
2023-01-25T16:53:55.592Z,0.60
2023-01-25T16:56:24.839Z,0.60
2023-01-25T16:58:52.972Z,0.60
2023-01-25T17:01:21.749Z,0.60
2023-01-25T17:03:48.863Z,0.60
2023-01-25T17:06:28.020Z,0.60
2023-01-25T17:09:09.402Z,0.50
2023-01-25T17:11:39.896Z,0.50
2023-01-25T17:14:07.161Z,0.50
2023-01-25T17:16:34.569Z,0.50
2023-01-25T17:19:07.104Z,0.50
2023-01-25T17:21:34.412Z,0.50
2023-01-25T17:24:02.387Z,0.50
2023-01-25T17:26:30.889Z,0.50
2023-01-25T17:29:00.363Z,0.50
2023-01-25T17:31:30.584Z,0.50
2023-01-25T17:33:57.916Z,0.50
2023-01-25T17:36:24.723Z,0.50
2023-01-25T17:38:53.800Z,0.50
2023-01-25T17:41:20.736Z,0.50
2023-01-25T17:43:53.625Z,0.50
2023-01-25T17:46:26.419Z,0.50
2023-01-25T17:48:53.707Z,0.50
2023-01-25T17:51:20.683Z,0.50
2023-01-25T17:53:48.024Z,0.50
2023-01-25T17:56:15.727Z,0.50
2023-01-25T17:58:42.822Z,0.50
2023-01-25T18:01:17.967Z,0.50
2023-01-25T18:03:46.769Z,0.50
2023-01-25T18:06:16.900Z,0.50
2023-01-25T18:08:49.313Z,0.60
2023-01-25T18:11:18.695Z,0.50
2023-01-25T18:13:50.980Z,0.50
2023-01-25T18:16:22.210Z,0.60
2023-01-25T18:18:50.652Z,0.60
2023-01-25T18:21:24.073Z,0.60
2023-01-25T18:23:53.743Z,0.60
2023-01-25T18:26:23.968Z,0.60
2023-01-25T18:28:53.291Z,0.60
2023-01-25T18:31:20.170Z,0.60
2023-01-25T18:33:46.884Z,0.60
2023-01-25T18:36:17.997Z,0.60
2023-01-25T18:38:45.269Z,0.60
2023-01-25T18:41:12.632Z,0.60
2023-01-25T18:43:39.339Z,0.50
2023-01-25T18:46:06.136Z,0.50
2023-01-25T18:48:33.096Z,0.50
2023-01-25T18:51:04.872Z,0.50
2023-01-25T18:53:32.609Z,0.60
2023-01-25T18:56:01.593Z,0.50
2023-01-25T18:58:30.573Z,0.50
2023-01-25T19:01:15.100Z,0.50
2023-01-25T19:03:42.655Z,0.60
2023-01-25T19:06:09.976Z,0.60
2023-01-25T19:08:41.233Z,0.60
2023-01-25T19:11:10.698Z,0.60
2023-01-25T19:13:39.324Z,0.60
2023-01-25T19:16:20.849Z,0.60
2023-01-25T19:18:50.193Z,0.60
2023-01-25T19:21:22.419Z,0.50
2023-01-25T19:23:49.274Z,0.50
2023-01-25T19:26:19.135Z,0.50
2023-01-25T19:28:46.857Z,0.50
2023-01-25T19:31:19.453Z,0.50
2023-01-25T19:33:47.133Z,0.50
2023-01-25T19:36:19.125Z,0.40
2023-01-25T19:38:47.748Z,0.50
2023-01-25T19:41:21.391Z,0.50
2023-01-25T19:43:52.137Z,0.40
2023-01-25T19:46:20.900Z,0.40
2023-01-25T19:48:50.183Z,0.50
2023-01-25T19:51:20.363Z,0.40
2023-01-25T19:54:18.269Z,0.40
2023-01-25T19:56:47.224Z,0.40
2023-01-25T19:59:16.855Z,0.40
2023-01-25T20:01:44.080Z,0.40
2023-01-25T20:04:17.593Z,0.40
2023-01-25T20:06:44.658Z,0.40
2023-01-25T20:09:17.267Z,0.40
2023-01-25T20:11:44.270Z,0.40
2023-01-25T20:14:12.718Z,0.50
2023-01-25T20:16:39.841Z,0.40
2023-01-25T20:19:06.583Z,0.40
2023-01-25T20:21:33.840Z,0.40
2023-01-25T20:24:04.785Z,0.40
2023-01-25T20:26:34.105Z,0.40
2023-01-25T20:29:00.974Z,0.40
2023-01-25T20:31:33.811Z,0.40
2023-01-25T20:34:06.320Z,0.40
2023-01-25T20:36:34.875Z,0.40
2023-01-25T20:39:02.487Z,0.40
2023-01-25T20:41:29.349Z,0.40
2023-01-25T20:44:00.167Z,0.40
2023-01-25T20:46:27.435Z,0.50
2023-01-25T20:48:54.976Z,0.50
2023-01-25T20:51:22.144Z,0.50
2023-01-25T20:53:50.593Z,0.50
2023-01-25T20:56:18.691Z,0.40
2023-01-25T20:58:50.648Z,0.50
2023-01-25T21:01:19.254Z,0.50
2023-01-25T21:03:46.210Z,0.40
2023-01-25T21:06:13.213Z,0.40
2023-01-25T21:08:40.344Z,0.40
2023-01-25T21:11:08.021Z,0.40
2023-01-25T21:13:39.881Z,0.50
2023-01-25T21:16:10.462Z,0.40
2023-01-25T21:18:40.005Z,0.40
2023-01-25T21:21:30.421Z,0.50
2023-01-25T21:24:00.141Z,0.40
2023-01-25T21:26:29.950Z,0.40
2023-01-25T21:28:57.988Z,0.40
2023-01-25T21:31:27.432Z,0.40
2023-01-25T21:33:55.093Z,0.40
2023-01-25T21:36:22.694Z,0.50
2023-01-25T21:38:50.799Z,0.40
2023-01-25T21:41:20.036Z,0.40
2023-01-25T21:44:06.312Z,0.40
2023-01-25T21:46:33.420Z,0.40
2023-01-25T21:49:20.736Z,0.40
2023-01-25T21:51:50.317Z,0.40
2023-01-25T21:54:18.692Z,0.40
2023-01-25T21:56:46.955Z,0.30
2023-01-25T21:59:14.770Z,0.30
2023-01-25T22:01:43.148Z,0.30
2023-01-25T22:04:11.258Z,0.30
2023-01-25T22:06:38.404Z,0.30
2023-01-25T22:09:05.715Z,0.30
2023-01-25T22:11:32.834Z,0.30
2023-01-25T22:14:01.058Z,0.30
2023-01-25T22:16:31.090Z,0.30
2023-01-25T22:18:59.910Z,0.30
2023-01-25T22:21:30.751Z,0.30
2023-01-25T22:24:02.195Z,0.40
2023-01-25T22:27:03.566Z,0.40
2023-01-25T22:29:30.886Z,0.40
2023-01-25T22:31:58.162Z,0.30
2023-01-25T22:34:25.118Z,0.40
2023-01-25T22:36:51.872Z,0.40
2023-01-25T22:39:18.754Z,0.40
2023-01-25T22:41:45.452Z,0.40
2023-01-25T22:44:14.497Z,0.40
2023-01-25T22:46:41.216Z,0.30
2023-01-25T22:49:08.112Z,0.30
2023-01-25T22:51:34.831Z,0.30
2023-01-25T22:54:01.611Z,0.30
2023-01-25T22:56:31.929Z,0.30
2023-01-25T22:58:59.272Z,0.30
2023-01-25T23:01:29.731Z,0.30
2023-01-25T23:03:57.200Z,0.40
2023-01-25T23:06:27.250Z,0.30
2023-01-25T23:09:03.366Z,0.40
2023-01-25T23:11:35.384Z,0.40
2023-01-25T23:14:21.847Z,0.40
2023-01-25T23:16:48.532Z,0.40
2023-01-25T23:19:15.629Z,0.40
2023-01-25T23:21:42.555Z,0.30
2023-01-25T23:24:10.554Z,0.40
2023-01-25T23:26:38.047Z,0.30
2023-01-25T23:29:07.237Z,0.30
2023-01-25T23:31:34.067Z,0.30
2023-01-25T23:34:02.999Z,0.30
2023-01-25T23:36:32.185Z,0.30
2023-01-25T23:38:59.501Z,0.30
2023-01-25T23:41:29.117Z,0.30
2023-01-25T23:43:56.359Z,0.30
2023-01-25T23:46:24.519Z,0.30
2023-01-25T23:48:51.520Z,0.30
2023-01-25T23:51:18.727Z,0.30
2023-01-25T23:53:45.479Z,0.30
2023-01-25T23:56:18.378Z,0.30
2023-01-25T23:58:45.741Z,0.30
